Time;durP1;ratioP1;P1;durP2;ratioP2;P2;SDS_P1;SDS_P2;PMS_P1;PMS_P2;Temp;Humidity;BMP_temperature;BMP_pressure;BME280_temperature;BME280_humidity;BME280_pressure;Samples;Min_cycle;Max_cycle;Signal;HPM_P1;HPM_P2
2021/11/02 00:00:52;;;;;;;0.55;0.38;;;19.10;66.80;;;;;;5050622;28;20045;-68
2021/11/02 00:03:17;;;;;;;0.88;0.40;;;19.20;66.90;;;;;;5050260;28;20025;-68
2021/11/02 00:05:43;;;;;;;1.05;0.40;;;19.20;66.80;;;;;;5050814;28;20029;-68
2021/11/02 00:08:08;;;;;;;0.50;0.30;;;19.20;66.80;;;;;;5051485;28;20051;-68
2021/11/02 00:10:35;;;;;;;0.45;0.20;;;19.20;66.80;;;;;;5050631;28;20029;-68
2021/11/02 00:13:00;;;;;;;0.50;0.40;;;19.20;66.80;;;;;;5050275;28;20025;-68
2021/11/02 00:15:30;;;;;;;0.22;0.13;;;19.20;66.80;;;;;;5033867;28;20029;-68
2021/11/02 00:18:00;;;;;;;0.38;0.30;;;19.30;66.90;;;;;;5051234;28;20062;-68
2021/11/02 00:20:26;;;;;;;0.60;0.30;;;19.30;66.90;;;;;;5051679;28;20390;-68
2021/11/02 00:22:56;;;;;;;0.40;0.20;;;19.30;66.90;;;;;;5052564;28;20021;-68
2021/11/02 00:25:22;;;;;;;0.70;0.30;;;19.30;66.90;;;;;;5055225;28;20099;-68
2021/11/02 00:27:48;;;;;;;0.60;0.40;;;19.30;66.90;;;;;;5053928;28;20029;-68
2021/11/02 00:30:14;;;;;;;0.60;0.30;;;19.30;66.90;;;;;;5053976;28;20044;-68
2021/11/02 00:32:40;;;;;;;0.73;0.47;;;19.30;66.90;;;;;;5054565;28;20110;-68
2021/11/02 00:35:06;;;;;;;0.73;0.38;;;19.30;66.90;;;;;;5053633;28;20486;-68
2021/11/02 00:37:32;;;;;;;0.98;0.40;;;19.30;66.80;;;;;;5053841;28;20028;-68
2021/11/02 00:39:58;;;;;;;2.22;0.45;;;19.40;66.90;;;;;;5037088;28;20029;-66
2021/11/02 00:42:50;;;;;;;0.45;0.43;;;19.40;66.90;;;;;;5053664;28;20017;-66
2021/11/02 00:45:13;;;;;;;0.80;0.47;;;19.40;66.80;;;;;;5054283;28;20033;-66
2021/11/02 00:47:39;;;;;;;0.30;0.30;;;19.40;67.00;;;;;;5053702;28;20100;-68
2021/11/02 00:50:10;;;;;;;0.52;0.22;;;19.40;66.90;;;;;;5054658;28;20526;-68
2021/11/02 00:52:40;;;;;;;0.40;0.30;;;19.40;66.90;;;;;;5054620;28;20021;-68
2021/11/02 00:55:06;;;;;;;1.08;0.30;;;19.40;66.90;;;;;;5053426;28;20051;-68
2021/11/02 00:57:31;;;;;;;0.65;0.30;;;19.50;66.90;;;;;;5053501;28;20078;-68
2021/11/02 00:59:57;;;;;;;0.98;0.47;;;19.50;66.90;;;;;;5054159;28;20111;-68
2021/11/02 01:02:22;;;;;;;0.47;0.40;;;19.50;66.90;;;;;;5054362;28;20031;-68
2021/11/02 01:04:48;;;;;;;0.90;0.40;;;19.50;67.00;;;;;;5054542;28;20036;-69
2021/11/02 01:07:14;;;;;;;0.68;0.30;;;19.50;67.00;;;;;;5054175;28;20465;-69
2021/11/02 01:09:40;;;;;;;0.73;0.30;;;19.50;67.00;;;;;;5053274;28;20060;-67
2021/11/02 01:12:06;;;;;;;0.55;0.30;;;19.50;66.90;;;;;;5054263;28;20045;-68
2021/11/02 01:14:32;;;;;;;0.52;0.20;;;19.50;66.90;;;;;;5053877;28;20408;-68
2021/11/02 01:16:58;;;;;;;0.47;0.40;;;19.50;66.90;;;;;;5036449;28;20025;-69
2021/11/02 01:19:23;;;;;;;0.45;0.30;;;19.50;68.00;;;;;;5053149;28;20026;-68
2021/11/02 01:21:49;;;;;;;0.52;0.50;;;19.60;67.00;;;;;;5054253;28;20032;-68
2021/11/02 01:24:15;;;;;;;0.60;0.32;;;19.60;67.00;;;;;;5052912;28;20434;-66
2021/11/02 01:26:40;;;;;;;0.20;0.20;;;19.60;67.10;;;;;;5036473;28;20021;-66
2021/11/02 01:29:06;;;;;;;0.55;0.40;;;19.60;67.00;;;;;;5052490;28;20052;-66
2021/11/02 01:31:32;;;;;;;0.55;0.38;;;19.60;67.00;;;;;;5052897;28;20096;-68
2021/11/02 01:33:57;;;;;;;0.93;0.40;;;19.60;67.00;;;;;;5053439;28;20466;-68
2021/11/02 01:36:23;;;;;;;0.20;0.20;;;19.60;67.10;;;;;;5054015;28;20048;-68
2021/11/02 01:38:48;;;;;;;0.30;0.30;;;19.60;67.00;;;;;;5052922;28;20090;-68
2021/11/02 01:41:18;;;;;;;0.52;0.20;;;19.70;67.10;;;;;;5053658;28;20021;-68
2021/11/02 01:43:45;;;;;;;0.20;0.20;;;19.60;67.10;;;;;;5052274;28;20028;-68
2021/11/02 01:46:26;;;;;;;0.35;0.30;;;19.70;67.10;;;;;;5053676;28;20024;-68
2021/11/02 01:48:55;;;;;;;0.20;0.20;;;19.70;67.00;;;;;;5052749;28;20549;-68
2021/11/02 01:51:22;;;;;;;0.43;0.40;;;19.70;67.10;;;;;;5052437;28;20028;-68
2021/11/02 01:53:48;;;;;;;0.82;0.20;;;19.70;67.10;;;;;;5052414;28;20029;-68
2021/11/02 01:56:14;;;;;;;0.63;0.40;;;19.70;67.10;;;;;;5053630;28;20109;-68
2021/11/02 01:58:40;;;;;;;1.15;0.40;;;19.70;67.10;;;;;;5052335;28;20029;-68
2021/11/02 02:01:06;;;;;;;0.20;0.20;;;19.80;68.20;;;;;;5052252;28;20025;-66
2021/11/02 02:03:49;;;;;;;0.77;0.30;;;19.80;67.20;;;;;;5052242;28;20035;-68
2021/11/02 02:06:23;;;;;;;0.25;0.20;;;19.80;67.10;;;;;;5052042;28;20017;-68
2021/11/02 02:09:04;;;;;;;0.68;0.30;;;19.80;67.20;;;;;;5052420;28;20028;-68
2021/11/02 02:11:48;;;;;;;0.10;0.10;;;19.80;67.20;;;;;;5052299;28;20522;-68
2021/11/02 02:14:32;;;;;;;0.30;0.20;;;19.80;67.20;;;;;;5052910;28;20035;-68
2021/11/02 02:16:58;;;;;;;0.75;0.30;;;19.80;67.20;;;;;;5035411;28;20490;-68
2021/11/02 02:19:29;;;;;;;0.30;0.28;;;19.80;67.20;;;;;;5052051;28;20032;-68
2021/11/02 02:22:32;;;;;;;0.63;0.30;;;19.80;67.20;;;;;;5053023;28;20075;-68
2021/11/02 02:25:22;;;;;;;0.40;0.40;;;19.80;67.10;;;;;;5053052;28;20114;-68
2021/11/02 02:28:10;;;;;;;1.05;0.32;;;19.80;67.20;;;;;;5052659;28;20021;-68
2021/11/02 02:30:54;;;;;;;1.42;0.30;;;19.80;67.20;;;;;;5051740;28;20033;-68
2021/11/02 02:33:21;;;;;;;0.17;0.17;;;19.80;67.20;;;;;;5051417;28;20025;-68
2021/11/02 02:35:47;;;;;;;0.50;0.20;;;19.80;67.30;;;;;;5035245;28;20082;-68
2021/11/02 02:38:13;;;;;;;0.38;0.20;;;19.80;67.30;;;;;;5034965;28;20025;-68
2021/11/02 02:40:40;;;;;;;0.45;0.30;;;19.80;67.30;;;;;;5034877;28;20379;-68
2021/11/02 02:43:05;;;;;;;0.43;0.20;;;19.80;67.30;;;;;;5034836;28;20013;-68
2021/11/02 02:45:31;;;;;;;0.63;0.40;;;19.80;67.20;;;;;;5034472;28;20389;-68
2021/11/02 02:47:57;;;;;;;0.20;0.20;;;19.80;67.20;;;;;;5018533;28;20113;-68
2021/11/02 02:50:22;;;;;;;0.52;0.10;;;19.80;67.30;;;;;;5051190;28;20059;-68
2021/11/02 02:52:48;;;;;;;0.30;0.30;;;19.90;67.30;;;;;;5034764;28;20478;-68
2021/11/02 02:55:14;;;;;;;0.22;0.20;;;19.90;67.30;;;;;;5052448;28;20025;-68
2021/11/02 02:57:40;;;;;;;0.50;0.50;;;19.90;67.30;;;;;;5051027;28;20021;-68
2021/11/02 03:00:06;;;;;;;0.32;0.30;;;19.90;67.30;;;;;;5034791;28;20032;-66
2021/11/02 03:02:32;;;;;;;0.45;0.40;;;19.90;67.30;;;;;;5052339;28;20028;-67
2021/11/02 03:05:00;;;;;;;0.77;0.30;;;19.90;67.30;;;;;;5034665;28;20490;-66
2021/11/02 03:07:26;;;;;;;1.42;0.40;;;19.90;67.30;;;;;;5034658;28;20048;-68
2021/11/02 03:09:52;;;;;;;0.77;0.40;;;19.90;67.30;;;;;;5034282;28;20108;-68
2021/11/02 03:12:35;;;;;;;0.32;0.32;;;19.90;67.30;;;;;;5052087;28;20021;-68
2021/11/02 03:18:02;;;;;;;0.52;0.30;;;19.90;67.30;;;;;;5037500;28;20078;-69
2021/11/02 03:56:13;;;;;;;0.20;0.20;;;20.00;67.70;;;;;;5051251;28;20033;-69
2021/11/02 03:59:04;;;;;;;0.70;0.20;;;20.00;67.60;;;;;;5054438;28;20028;-67
2021/11/02 04:01:44;;;;;;;0.35;0.22;;;20.00;67.70;;;;;;5054697;28;20538;-67
2021/11/02 04:23:43;;;;;;;0.70;0.40;;;20.00;67.70;;;;;;5054022;28;20028;-68
2021/11/02 04:29:29;;;;;;;0.47;0.20;;;20.00;67.70;;;;;;5020039;28;20136;-68
2021/11/02 05:06:50;;;;;;;0.30;0.30;;;20.00;67.80;;;;;;5012737;28;20057;-67
2021/11/02 05:07:11;;;;;;;0.20;0.20;;;20.00;67.80;;;;;;5028629;28;20184;-69
2021/11/02 05:48:03;;;;;;;0.43;0.17;;;20.00;67.90;;;;;;5053725;28;20108;-67
2021/11/02 06:05:57;;;;;;;1.25;0.55;;;20.00;67.80;;;;;;5051949;28;20623;-68
2021/11/02 06:08:50;;;;;;;0.38;0.20;;;20.00;67.90;;;;;;5051957;28;20056;-68
2021/11/02 06:30:44;;;;;;;0.20;0.13;;;20.00;68.00;;;;;;5053060;28;20497;-68
2021/11/02 06:46:55;;;;;;;0.60;0.20;;;20.00;68.00;;;;;;5030358;28;20033;-69
2021/11/02 06:54:54;;;;;;;1.17;0.30;;;19.80;67.20;;;;;;5030061;28;20033;-69
2021/11/02 07:17:56;;;;;;;0.50;0.30;;;19.60;66.30;;;;;;4947510;28;20030;-69
2021/11/02 08:48:26;;;;;;;3.58;1.00;;;19.40;65.70;;;;;;5053697;28;20025;-70
2021/11/02 08:50:53;;;;;;;3.35;1.00;;;19.40;65.70;;;;;;5053579;28;20106;-70
2021/11/02 08:53:19;;;;;;;5.05;0.98;;;19.40;65.70;;;;;;5053521;28;20124;-70
2021/11/02 08:55:45;;;;;;;5.28;1.17;;;19.40;65.70;;;;;;5054626;28;20032;-70
2021/11/02 08:58:10;;;;;;;3.75;0.90;;;19.40;65.60;;;;;;5054467;28;20092;-70
2021/11/02 09:00:37;;;;;;;5.85;1.27;;;19.50;65.60;;;;;;5053327;28;20062;-70
2021/11/02 09:03:11;;;;;;;3.75;1.23;;;19.40;65.60;;;;;;5053501;28;20025;-70
2021/11/02 09:05:37;;;;;;;4.82;1.10;;;19.50;65.50;;;;;;5053236;28;20120;-70
2021/11/02 09:08:03;;;;;;;2.25;0.60;;;19.40;65.50;;;;;;5053121;28;20124;-70
2021/11/02 09:10:28;;;;;;;9.05;1.30;;;19.40;65.50;;;;;;5053257;28;20502;-70
2021/11/02 09:12:55;;;;;;;5.68;0.88;;;19.50;65.50;;;;;;5052758;28;20027;-70
2021/11/02 09:15:25;;;;;;;3.00;1.05;;;19.40;65.40;;;;;;5053583;28;20102;-70
2021/11/02 09:17:52;;;;;;;3.08;1.00;;;19.50;65.50;;;;;;5053965;28;20037;-70
2021/11/02 09:20:17;;;;;;;1.88;0.75;;;19.50;65.50;;;;;;5036651;28;20024;-70
2021/11/02 09:22:44;;;;;;;5.38;1.40;;;19.40;65.40;;;;;;5054453;28;20021;-70
2021/11/02 09:25:09;;;;;;;1.75;0.80;;;19.50;65.40;;;;;;5053087;28;20500;-70
2021/11/02 09:27:37;;;;;;;5.03;1.25;;;19.40;65.40;;;;;;5053966;28;20088;-70
2021/11/02 09:30:05;;;;;;;1.10;0.73;;;19.40;65.40;;;;;;5036583;28;20109;-70
2021/11/02 09:32:31;;;;;;;3.40;0.63;;;19.50;65.40;;;;;;5052836;28;20017;-70
2021/11/02 09:34:56;;;;;;;2.72;0.82;;;19.40;65.30;;;;;;5052954;28;20027;-70
2021/11/02 09:37:33;;;;;;;4.30;1.02;;;19.50;65.40;;;;;;5054086;28;20363;-70
2021/11/02 09:40:09;;;;;;;3.10;1.13;;;19.50;65.30;;;;;;5053838;28;20017;-70
2021/11/02 09:43:05;;;;;;;4.38;0.70;;;19.50;65.30;;;;;;5052406;28;20444;-70
2021/11/02 09:46:08;;;;;;;3.60;0.80;;;19.50;65.20;;;;;;5053786;28;20108;-70
2021/11/02 09:48:34;;;;;;;;;;;19.50;65.20;;;;;;5054210;28;20052;-70
2021/11/02 09:51:13;;;;;;;3.55;1.10;;;19.40;65.10;;;;;;5053596;28;19963;-70
2021/11/02 09:54:34;;;;;;;5.40;1.38;;;19.30;65.50;;;;;;5052278;28;20033;-70
2021/11/02 09:57:20;;;;;;;2.45;1.00;;;19.40;65.30;;;;;;5041001;28;20033;-70
2021/11/02 09:59:56;;;;;;;6.63;1.25;;;19.40;65.40;;;;;;5053526;28;20074;-70
2021/11/02 10:02:35;;;;;;;3.05;0.80;;;19.30;65.50;;;;;;5053470;28;20425;-70
2021/11/02 10:05:20;;;;;;;2.75;0.80;;;19.40;65.50;;;;;;5053460;28;20025;-70
2021/11/02 10:08:21;;;;;;;1.85;0.77;;;19.40;65.20;;;;;;5068444;28;20037;-70
2021/11/02 10:11:02;;;;;;;3.80;1.08;;;19.40;65.20;;;;;;5053173;28;20053;-70
2021/11/02 10:13:49;;;;;;;5.55;1.00;;;19.40;65.50;;;;;;5053387;28;20025;-70
2021/11/02 10:16:28;;;;;;;1.92;0.65;;;19.40;65.20;;;;;;5037189;28;20029;-70
2021/11/02 10:19:31;;;;;;;1.85;0.80;;;19.40;65.40;;;;;;5051797;28;20025;-70
2021/11/02 10:22:15;;;;;;;2.00;0.90;;;19.40;65.20;;;;;;5051974;28;20063;-70
2021/11/02 10:25:05;;;;;;;1.95;0.63;;;19.40;65.40;;;;;;5053106;28;20024;-70
2021/11/02 10:27:52;;;;;;;2.90;0.90;;;19.40;65.10;;;;;;5047182;28;20040;-70
2021/11/02 10:30:43;;;;;;;3.50;0.80;;;19.40;65.20;;;;;;5052895;28;20437;-70
2021/11/02 10:33:15;;;;;;;2.20;0.50;;;19.40;65.20;;;;;;5052799;28;20025;-70
2021/11/02 10:36:16;;;;;;;3.83;1.10;;;19.40;65.30;;;;;;5052846;28;20029;-70
2021/11/02 10:38:44;;;;;;;3.97;0.93;;;19.40;65.20;;;;;;5049668;28;20033;-70
2021/11/02 10:41:18;;;;;;;2.20;0.77;;;19.40;65.30;;;;;;5049120;28;20028;-70
2021/11/02 10:44:13;;;;;;;2.17;0.63;;;19.40;65.20;;;;;;5032239;28;20514;-70
2021/11/02 10:46:39;;;;;;;2.53;0.75;;;19.50;65.10;;;;;;5049088;28;20021;-70
2021/11/02 10:49:40;;;;;;;1.58;0.85;;;19.40;65.20;;;;;;5048013;28;20029;-70
2021/11/02 10:52:09;;;;;;;1.50;0.70;;;19.50;65.30;;;;;;5010711;28;20451;-70
2021/11/02 10:54:46;;;;;;;1.67;0.70;;;19.40;65.20;;;;;;4994041;28;20042;-70
2021/11/02 10:57:27;;;;;;;3.35;0.63;;;19.50;65.30;;;;;;5022007;28;20611;-70
2021/11/02 10:59:58;;;;;;;1.50;0.57;;;19.50;65.30;;;;;;5013810;28;20028;-70
2021/11/02 11:02:26;;;;;;;2.13;0.65;;;19.50;65.30;;;;;;5013961;28;20021;-70
2021/11/02 11:04:57;;;;;;;2.53;0.60;;;19.50;65.30;;;;;;4997454;28;20025;-70
2021/11/02 11:07:50;;;;;;;1.95;0.60;;;19.50;65.30;;;;;;5013358;28;20095;-70
2021/11/02 11:10:17;;;;;;;2.30;0.90;;;19.50;65.20;;;;;;5014298;28;20037;-70
2021/11/02 11:12:49;;;;;;;1.90;0.70;;;19.50;65.20;;;;;;5014196;28;20276;-70
2021/11/02 11:15:15;;;;;;;1.45;0.45;;;19.50;65.20;;;;;;5010317;28;20117;-70
2021/11/02 11:18:06;;;;;;;1.50;0.80;;;19.50;65.20;;;;;;4994140;28;20141;-70
2021/11/02 11:20:32;;;;;;;2.97;0.57;;;19.50;65.20;;;;;;5005202;28;20046;-70
2021/11/02 11:22:59;;;;;;;0.90;0.57;;;19.50;65.20;;;;;;5010083;28;20042;-70
2021/11/02 11:25:27;;;;;;;2.35;0.55;;;19.50;65.20;;;;;;4994305;28;20402;-70
2021/11/02 11:27:57;;;;;;;1.50;0.35;;;19.50;65.20;;;;;;5010408;28;20033;-70
2021/11/02 11:30:27;;;;;;;2.47;0.70;;;19.50;65.20;;;;;;5031183;28;20022;-70
2021/11/02 11:32:53;;;;;;;2.30;0.65;;;19.50;65.20;;;;;;5014761;28;20498;-70
2021/11/02 11:35:18;;;;;;;2.50;1.08;;;19.50;65.10;;;;;;5014524;28;20033;-70
2021/11/02 11:37:46;;;;;;;1.85;0.63;;;19.50;65.10;;;;;;5030864;28;20018;-70
2021/11/02 11:40:14;;;;;;;1.70;0.50;;;19.50;65.10;;;;;;5030966;28;20033;-70
2021/11/02 11:42:40;;;;;;;1.85;0.70;;;19.50;65.10;;;;;;5014843;28;20018;-70
2021/11/02 11:45:11;;;;;;;1.27;0.50;;;19.50;65.10;;;;;;5030762;28;20037;-70
2021/11/02 11:47:37;;;;;;;1.45;0.70;;;19.50;65.00;;;;;;5036971;28;20037;-70
2021/11/02 11:50:23;;;;;;;1.83;0.85;;;19.50;65.10;;;;;;5050780;28;20064;-70
2021/11/02 11:52:50;;;;;;;2.65;0.45;;;19.50;65.00;;;;;;5050542;28;20020;-70
2021/11/02 11:55:26;;;;;;;1.67;0.50;;;19.50;65.10;;;;;;5050719;28;20028;-70
2021/11/02 11:58:05;;;;;;;1.83;0.45;;;19.50;65.00;;;;;;5050676;28;20025;-70
2021/11/02 12:00:31;;;;;;;1.05;0.55;;;19.60;65.10;;;;;;5050687;28;20038;-70
2021/11/02 12:03:04;;;;;;;1.05;0.57;;;19.50;65.10;;;;;;5050668;28;20031;-70
2021/11/02 12:05:30;;;;;;;1.13;0.40;;;19.50;65.00;;;;;;5051975;28;20371;-70
2021/11/02 12:08:15;;;;;;;0.95;0.50;;;19.50;65.00;;;;;;5050112;28;20049;-70
2021/11/02 12:10:41;;;;;;;0.93;0.55;;;19.60;65.00;;;;;;5050591;28;20025;-70
2021/11/02 12:13:08;;;;;;;2.40;0.70;;;19.50;65.10;;;;;;5050455;28;20025;-70
2021/11/02 12:15:46;;;;;;;1.52;0.60;;;19.50;65.10;;;;;;5033916;28;20363;-70
2021/11/02 12:18:14;;;;;;;1.08;0.50;;;19.60;65.10;;;;;;5030545;28;20410;-70
2021/11/02 12:20:40;;;;;;;2.95;0.55;;;19.50;65.10;;;;;;5018329;28;20471;-70
2021/11/02 12:23:17;;;;;;;0.75;0.50;;;19.50;65.00;;;;;;5017509;28;20040;-70
2021/11/02 12:25:54;;;;;;;1.95;0.73;;;19.60;65.10;;;;;;5034395;28;20033;-70
2021/11/02 12:28:40;;;;;;;3.20;0.68;;;19.60;65.00;;;;;;5018324;28;20029;-70
2021/11/02 12:31:08;;;;;;;2.40;0.50;;;19.60;65.00;;;;;;5035313;28;20029;-70
2021/11/02 12:33:35;;;;;;;0.82;0.40;;;19.50;65.00;;;;;;5017748;28;20100;-70
2021/11/02 12:36:03;;;;;;;0.80;0.38;;;19.50;65.00;;;;;;5037653;28;20410;-70
2021/11/02 12:38:33;;;;;;;0.93;0.50;;;19.50;65.00;;;;;;5050779;28;20048;-70
2021/11/02 12:40:59;;;;;;;1.27;0.60;;;19.50;65.00;;;;;;5046027;28;20047;-70
2021/11/02 12:43:29;;;;;;;0.73;0.50;;;19.50;65.00;;;;;;5054024;28;20025;-70
2021/11/02 12:45:57;;;;;;;1.83;0.60;;;19.60;65.00;;;;;;5054927;28;20029;-70
2021/11/02 12:48:23;;;;;;;1.35;0.45;;;19.60;65.00;;;;;;5053737;28;20478;-70
2021/11/02 12:50:50;;;;;;;1.23;0.47;;;19.60;65.00;;;;;;5053449;28;20390;-70
2021/11/02 12:53:16;;;;;;;1.33;0.30;;;19.60;66.00;;;;;;5053553;28;20108;-70
2021/11/02 12:55:45;;;;;;;1.60;0.57;;;19.60;65.00;;;;;;5053610;28;20394;-70
2021/11/02 12:58:10;;;;;;;0.90;0.70;;;19.60;65.00;;;;;;5053713;28;20474;-70
2021/11/02 13:00:50;;;;;;;1.20;0.50;;;19.60;65.00;;;;;;5054635;28;20071;-70
2021/11/02 13:03:25;;;;;;;1.27;0.40;;;19.60;65.00;;;;;;5053481;28;20048;-70
2021/11/02 13:06:06;;;;;;;0.68;0.40;;;19.60;64.90;;;;;;5053258;28;20029;-70
2021/11/02 13:08:42;;;;;;;0.93;0.45;;;19.60;64.90;;;;;;5038076;28;20083;-70
2021/11/02 13:11:09;;;;;;;1.30;0.38;;;19.50;64.90;;;;;;5053345;28;20486;-70
2021/11/02 13:13:56;;;;;;;0.73;0.40;;;19.60;65.00;;;;;;5054522;28;20074;-70
2021/11/02 13:16:23;;;;;;;0.57;0.32;;;19.60;64.90;;;;;;5053023;28;20083;-70
2021/11/02 13:18:49;;;;;;;0.95;0.52;;;19.50;64.90;;;;;;5053965;28;20033;-70
2021/11/02 13:21:29;;;;;;;0.57;0.40;;;19.60;65.00;;;;;;5054149;28;20013;-70
2021/11/02 13:24:19;;;;;;;1.70;0.50;;;19.60;64.90;;;;;;5037679;28;20025;-70
2021/11/02 13:26:46;;;;;;;3.05;1.20;;;19.60;64.90;;;;;;5053345;28;20421;-70
2021/11/02 13:29:16;;;;;;;2.10;0.55;;;19.60;65.00;;;;;;5052588;28;20490;-70
2021/11/02 13:31:43;;;;;;;0.60;0.40;;;19.60;64.90;;;;;;5052933;28;20482;-70
2021/11/02 13:34:13;;;;;;;1.17;0.60;;;19.60;64.90;;;;;;5053731;28;20416;-70
2021/11/02 13:36:38;;;;;;;0.88;0.40;;;19.60;64.90;;;;;;5052949;28;20490;-70
2021/11/02 13:39:05;;;;;;;0.25;0.25;;;19.60;64.90;;;;;;5032174;28;20113;-70
2021/11/02 13:41:35;;;;;;;1.50;0.40;;;19.60;64.80;;;;;;5054079;28;20013;-70
2021/11/02 13:44:05;;;;;;;1.60;0.70;;;19.60;64.80;;;;;;5052813;28;20025;-70
2021/11/02 13:46:32;;;;;;;1.08;0.40;;;19.60;64.80;;;;;;5052560;28;20029;-70
2021/11/02 13:48:58;;;;;;;2.05;0.65;;;19.60;64.90;;;;;;5052458;28;20086;-70
2021/11/02 13:51:24;;;;;;;0.65;0.35;;;19.60;64.80;;;;;;5052645;28;20025;-70
2021/11/02 13:53:50;;;;;;;0.50;0.30;;;19.60;64.80;;;;;;5052474;28;20024;-70
2021/11/02 13:56:18;;;;;;;0.77;0.35;;;19.60;64.80;;;;;;5032525;28;20626;-70
2021/11/02 13:58:44;;;;;;;0.40;0.28;;;19.60;64.80;;;;;;5033732;28;20104;-70
2021/11/02 14:01:17;;;;;;;1.00;0.60;;;19.60;64.90;;;;;;5032262;28;20419;-70
2021/11/02 14:03:47;;;;;;;;;;;19.60;64.80;;;;;;5032571;28;20068;-70
2021/11/02 14:06:14;;;;;;;0.60;0.40;;;19.60;64.70;;;;;;5032342;28;19904;-70
2021/11/02 14:08:40;;;;;;;0.82;0.45;;;19.60;65.00;;;;;;5015770;28;20121;-70
2021/11/02 14:11:16;;;;;;;0.77;0.30;;;19.60;65.00;;;;;;5033610;28;20104;-70
2021/11/02 14:13:46;;;;;;;0.57;0.50;;;19.60;65.00;;;;;;5052156;28;20048;-70
2021/11/02 14:16:25;;;;;;;0.35;0.20;;;19.60;64.90;;;;;;5052015;28;20041;-70
2021/11/02 14:18:51;;;;;;;3.30;0.50;;;19.60;64.90;;;;;;5051665;28;20067;-70
2021/11/02 14:21:17;;;;;;;0.55;0.35;;;19.60;64.90;;;;;;5051953;28;20029;-70
2021/11/02 14:23:43;;;;;;;1.30;0.30;;;19.60;64.90;;;;;;5035419;28;20040;-70
2021/11/02 14:26:22;;;;;;;1.20;0.30;;;19.60;64.80;;;;;;5035624;28;20450;-70
2021/11/02 14:28:58;;;;;;;1.48;0.60;;;19.60;64.80;;;;;;5052264;28;20032;-70
2021/11/02 14:31:38;;;;;;;0.50;0.20;;;19.70;64.90;;;;;;5052814;28;20025;-70
2021/11/02 14:34:27;;;;;;;1.95;0.40;;;19.70;64.80;;;;;;5052865;28;20033;-70
2021/11/02 14:37:15;;;;;;;0.77;0.30;;;19.70;64.70;;;;;;5049502;28;20116;-70
2021/11/02 14:39:55;;;;;;;1.45;0.20;;;19.70;64.70;;;;;;5051694;28;20017;-70
2021/11/02 14:42:56;;;;;;;1.08;0.30;;;19.70;64.90;;;;;;5051009;28;20024;-70
2021/11/02 14:45:43;;;;;;;0.38;0.20;;;19.70;64.70;;;;;;5014430;28;20450;-70
2021/11/02 14:48:32;;;;;;;0.60;0.30;;;19.70;64.80;;;;;;5014277;28;20034;-70
2021/11/02 14:50:58;;;;;;;1.00;0.90;;;19.60;64.70;;;;;;5030891;28;20036;-70
2021/11/02 14:53:29;;;;;;;1.55;0.43;;;19.60;64.80;;;;;;5014170;28;20022;-70
2021/11/02 14:56:07;;;;;;;1.58;0.43;;;19.60;64.80;;;;;;5030544;28;20454;-70
2021/11/02 14:58:43;;;;;;;0.55;0.40;;;19.60;64.80;;;;;;5013952;28;20021;-70
2021/11/02 15:01:19;;;;;;;1.58;0.60;;;19.70;64.90;;;;;;5030217;28;20037;-70
2021/11/02 15:03:59;;;;;;;1.48;0.50;;;19.70;64.80;;;;;;5014929;28;20029;-70
2021/11/02 15:06:35;;;;;;;0.60;0.30;;;19.60;64.80;;;;;;5014834;28;20121;-70
2021/11/02 15:09:04;;;;;;;0.32;0.30;;;19.70;64.90;;;;;;5014872;28;20116;-70
2021/11/02 15:11:30;;;;;;;0.88;0.50;;;19.60;64.80;;;;;;5014233;28;20048;-70
2021/11/02 15:14:00;;;;;;;1.52;0.30;;;19.60;64.80;;;;;;5013575;28;20495;-70
2021/11/02 15:16:26;;;;;;;0.77;0.43;;;19.70;64.80;;;;;;5013355;28;20363;-70
2021/11/02 15:19:02;;;;;;;2.08;0.40;;;19.60;64.70;;;;;;5010393;28;20542;-70
2021/11/02 15:21:38;;;;;;;1.13;0.50;;;19.70;64.70;;;;;;5004090;28;20414;-70
2021/11/02 15:24:33;;;;;;;1.00;0.40;;;19.70;64.70;;;;;;5032526;28;20018;-70
2021/11/02 15:27:20;;;;;;;0.60;0.35;;;19.70;64.50;;;;;;5031193;28;20029;-70
2021/11/02 15:29:48;;;;;;;0.30;0.20;;;19.60;64.60;;;;;;5031014;28;20026;-70
2021/11/02 15:32:37;;;;;;;1.27;0.40;;;19.60;64.80;;;;;;5031255;28;20021;-70
2021/11/02 15:35:04;;;;;;;0.60;0.40;;;19.70;65.60;;;;;;5030982;28;20114;-70
2021/11/02 15:37:39;;;;;;;1.15;0.45;;;19.60;64.70;;;;;;5031073;28;20032;-70
2021/11/02 15:40:08;;;;;;;1.50;0.40;;;19.60;64.70;;;;;;5031201;28;20018;-70
2021/11/02 15:42:35;;;;;;;0.50;0.30;;;19.60;64.70;;;;;;5030838;28;20091;-70
2021/11/02 15:45:06;;;;;;;0.60;0.30;;;19.60;64.60;;;;;;5031749;28;20075;-70
2021/11/02 15:47:33;;;;;;;1.00;0.38;;;19.60;64.70;;;;;;5050861;28;20029;-70
2021/11/02 15:50:00;;;;;;;0.57;0.32;;;19.60;64.60;;;;;;5050918;28;20111;-70
2021/11/02 15:52:28;;;;;;;0.30;0.30;;;19.70;64.60;;;;;;5052365;28;20079;-70
2021/11/02 15:54:53;;;;;;;1.40;0.75;;;19.70;64.70;;;;;;5056097;28;20116;-70
2021/11/02 15:57:19;;;;;;;0.38;0.30;;;19.70;64.60;;;;;;5055817;28;20104;-70
2021/11/02 15:59:45;;;;;;;0.35;0.30;;;19.60;64.50;;;;;;5054569;28;20387;-70
2021/11/02 16:02:10;;;;;;;0.85;0.40;;;19.60;64.50;;;;;;5054671;28;20100;-70
2021/11/02 16:04:36;;;;;;;1.00;0.35;;;19.60;64.50;;;;;;5054641;28;20057;-70
2021/11/02 16:07:04;;;;;;;1.17;0.50;;;19.70;64.50;;;;;;5055756;28;20059;-70
2021/11/02 16:09:49;;;;;;;0.77;0.40;;;19.70;64.50;;;;;;5054529;28;20025;-70
2021/11/02 16:12:23;;;;;;;0.93;0.28;;;19.70;64.30;;;;;;5055746;28;20025;-70
2021/11/02 16:15:10;;;;;;;0.70;0.40;;;19.70;64.50;;;;;;5054198;28;20108;-70
2021/11/02 16:17:55;;;;;;;0.47;0.30;;;19.70;64.30;;;;;;5055468;28;20474;-70
2021/11/02 16:20:30;;;;;;;0.65;0.30;;;19.70;64.50;;;;;;5038552;28;20482;-70
2021/11/02 16:22:57;;;;;;;0.45;0.30;;;19.60;64.50;;;;;;5054313;28;20021;-70
2021/11/02 16:25:23;;;;;;;0.30;0.20;;;19.60;64.50;;;;;;5055508;28;20048;-70
2021/11/02 16:27:56;;;;;;;0.77;0.30;;;19.60;64.40;;;;;;5054010;28;20498;-70
2021/11/02 16:30:23;;;;;;;1.85;0.40;;;19.70;64.50;;;;;;5051681;28;20032;-70
2021/11/02 16:32:50;;;;;;;1.63;0.50;;;19.70;64.50;;;;;;5053871;28;20013;-70
2021/11/02 16:35:36;;;;;;;0.73;0.30;;;19.70;64.50;;;;;;5053864;28;20420;-70
2021/11/02 16:38:20;;;;;;;0.30;0.30;;;19.70;64.30;;;;;;5054231;28;20017;-70
2021/11/02 16:41:05;;;;;;;0.22;0.20;;;19.60;64.20;;;;;;5055178;28;20494;-70
2021/11/02 16:43:35;;;;;;;0.73;0.30;;;19.70;64.50;;;;;;5054812;28;20025;-70
2021/11/02 16:46:08;;;;;;;0.90;0.40;;;19.60;64.40;;;;;;5054015;28;20021;-70
2021/11/02 16:48:44;;;;;;;0.82;0.30;;;19.60;64.40;;;;;;5053730;28;20155;-70
2021/11/02 16:51:11;;;;;;;0.55;0.30;;;19.70;64.40;;;;;;5053860;28;20027;-70
2021/11/02 16:53:36;;;;;;;0.30;0.30;;;19.60;64.40;;;;;;5054800;28;20087;-70
2021/11/02 16:56:24;;;;;;;0.40;0.30;;;19.70;64.40;;;;;;5055121;28;20482;-70
2021/11/02 16:58:54;;;;;;;0.60;0.38;;;19.70;64.40;;;;;;5053548;28;20121;-70
2021/11/02 17:01:25;;;;;;;1.30;0.28;;;19.60;64.30;;;;;;5053594;28;20048;-70
2021/11/02 17:03:51;;;;;;;0.43;0.40;;;19.70;64.40;;;;;;5054031;28;20064;-70
2021/11/02 17:06:20;;;;;;;0.85;0.47;;;19.70;64.40;;;;;;5054372;28;20017;-70
2021/11/02 17:09:00;;;;;;;0.30;0.20;;;19.70;64.30;;;;;;5053444;28;20028;-70
2021/11/02 17:11:27;;;;;;;0.77;0.40;;;19.70;64.20;;;;;;5054278;28;20040;-70
2021/11/02 17:13:56;;;;;;;1.17;0.30;;;19.70;64.30;;;;;;5053383;28;20033;-70
2021/11/02 17:16:26;;;;;;;0.45;0.30;;;19.70;64.30;;;;;;5053288;28;20389;-70
2021/11/02 17:18:56;;;;;;;0.40;0.30;;;19.70;64.30;;;;;;5053180;28;20079;-70
2021/11/02 17:21:24;;;;;;;0.75;0.40;;;19.60;64.20;;;;;;5037130;28;20025;-70
2021/11/02 17:23:51;;;;;;;0.93;0.60;;;19.60;64.20;;;;;;5036794;28;20108;-70
2021/11/02 17:26:19;;;;;;;1.00;0.35;;;19.60;64.20;;;;;;5052852;28;20108;-70
2021/11/02 17:28:47;;;;;;;0.73;0.40;;;19.60;64.20;;;;;;5036759;28;20108;-70
2021/11/02 17:31:15;;;;;;;0.20;0.20;;;19.70;64.30;;;;;;5054300;28;20040;-70
2021/11/02 17:33:42;;;;;;;0.35;0.20;;;19.70;64.30;;;;;;5036396;28;20590;-70
2021/11/02 17:36:12;;;;;;;0.50;0.25;;;19.70;64.30;;;;;;5053227;28;20525;-70
2021/11/02 17:38:42;;;;;;;0.40;0.40;;;19.70;64.30;;;;;;5052761;28;20021;-70
2021/11/02 17:41:09;;;;;;;0.50;0.30;;;19.70;64.30;;;;;;5052645;28;20021;-70
2021/11/02 17:43:41;;;;;;;0.90;0.40;;;19.70;64.30;;;;;;5052759;28;20052;-70
2021/11/02 17:46:08;;;;;;;0.85;0.60;;;19.70;64.30;;;;;;5052739;28;20029;-70
2021/11/02 17:48:36;;;;;;;1.15;0.60;;;19.70;64.30;;;;;;5052588;28;20071;-70
2021/11/02 17:51:02;;;;;;;0.70;0.70;;;19.70;64.30;;;;;;5052430;28;20041;-70
2021/11/02 17:53:29;;;;;;;0.65;0.50;;;19.70;64.30;;;;;;5052633;28;20059;-70
2021/11/02 17:55:57;;;;;;;0.52;0.40;;;19.70;64.30;;;;;;5053460;28;20386;-70
2021/11/02 17:58:29;;;;;;;0.60;0.52;;;19.70;64.30;;;;;;5052491;28;20029;-70
2021/11/02 18:01:03;;;;;;;0.80;0.57;;;19.70;64.30;;;;;;5052451;28;20017;-70
2021/11/02 18:03:37;;;;;;;1.00;0.60;;;19.70;64.30;;;;;;5052647;28;20584;-70
2021/11/02 18:06:05;;;;;;;0.80;0.60;;;19.70;64.30;;;;;;5052630;28;20031;-70
2021/11/02 18:08:35;;;;;;;0.50;0.40;;;19.70;64.30;;;;;;5052250;28;20136;-70